Terminal Aerodrome Forecast
Issued by NWS

Home | Current Version | Previous Version | Text Only | Print | Product List | Glossary On
Versions: 1 2 3 4 5 6 7 8 9 10 11 12 13 14 15 16 17 18 19 20 21 22 23 24 25 26 27 28 29 30 31 32 33 34 35 36
000
FTAK31 PANC 260538
TAFADU
TAF
PADU 260538Z 2606/2706 15015G25KT P6SM VCSH SCT010 OVC025
      TEMPO 2606/2607 12008KT -RA BKN010
     FM260700 15022G32KT 6SM -RA OVC015
     FM262200 18010G20KT P6SM -SHRA SCT025 BKN060=

USA.gov is the U.S. government's official web portal to all federal, state and local government web resources and services.